createdAt,value
2022-09-29T00:01:11.768Z,99.90
2022-09-29T00:03:57.760Z,99.90
2022-09-29T00:06:43.466Z,99.90
2022-09-29T00:09:29.145Z,99.90
2022-09-29T00:12:14.737Z,99.90
2022-09-29T00:15:00.469Z,99.90
2022-09-29T00:18:09.395Z,99.90
2022-09-29T00:21:02.630Z,99.90
2022-09-29T00:23:49.767Z,99.90
2022-09-29T00:26:35.472Z,99.90
2022-09-29T00:29:21.080Z,99.90
2022-09-29T00:32:06.489Z,99.90
2022-09-29T00:34:52.058Z,99.90
2022-09-29T00:37:37.689Z,99.90
2022-09-29T00:40:23.062Z,99.90
2022-09-29T00:43:19.762Z,99.90
2022-09-29T00:46:07.246Z,99.90
2022-09-29T00:48:57.132Z,99.90
2022-09-29T00:51:50.864Z,99.90
2022-09-29T00:54:43.754Z,99.90
2022-09-29T00:57:35.936Z,99.90
2022-09-29T01:00:21.727Z,99.90
2022-09-29T01:03:13.520Z,99.90
2022-09-29T01:06:04.525Z,99.90
2022-09-29T01:08:59.985Z,99.90
2022-09-29T01:11:46.180Z,99.90
2022-09-29T01:14:35.042Z,99.90
2022-09-29T01:17:21.932Z,99.90
2022-09-29T01:20:17.173Z,99.90
2022-09-29T01:23:24.892Z,99.90
2022-09-29T01:26:38.576Z,99.90
2022-09-29T01:29:43.598Z,99.90
2022-09-29T01:33:04.403Z,99.90
2022-09-29T01:35:56.198Z,99.90
2022-09-29T01:39:40.718Z,99.90
2022-09-29T01:42:49.073Z,99.90
2022-09-29T01:45:40.320Z,99.90
2022-09-29T01:48:31.891Z,99.90
2022-09-29T01:51:22.208Z,99.90
2022-09-29T01:54:19.752Z,99.90
2022-09-29T01:57:32.889Z,99.90
2022-09-29T02:00:20.964Z,99.90
2022-09-29T02:03:29.768Z,99.90
2022-09-29T02:06:27.094Z,99.90
2022-09-29T02:09:26.124Z,99.90
2022-09-29T02:12:18.017Z,99.90
2022-09-29T02:15:09.339Z,99.90
2022-09-29T02:17:59.861Z,99.90
2022-09-29T02:20:47.384Z,99.90
2022-09-29T02:23:32.962Z,99.90
2022-09-29T02:26:20.505Z,99.90
2022-09-29T02:29:07.134Z,99.90
2022-09-29T02:31:53.607Z,99.90
2022-09-29T02:34:45.940Z,99.90
2022-09-29T02:37:57.921Z,99.90
2022-09-29T02:40:51.203Z,99.90
2022-09-29T02:44:01.112Z,99.90
2022-09-29T02:46:58.799Z,99.90
2022-09-29T02:50:25.845Z,99.90
2022-09-29T02:53:33.511Z,99.90
2022-09-29T02:56:46.925Z,99.90
2022-09-29T03:00:00.845Z,99.90
2022-09-29T03:02:47.013Z,99.90
2022-09-29T03:05:33.160Z,99.90
2022-09-29T03:08:18.579Z,99.90
2022-09-29T03:11:04.157Z,99.90
2022-09-29T03:13:49.720Z,99.90
2022-09-29T03:16:37.314Z,99.90
2022-09-29T03:19:23.177Z,99.90
2022-09-29T03:22:08.660Z,99.90
2022-09-29T03:24:54.336Z,99.90
2022-09-29T03:27:39.788Z,99.90
2022-09-29T03:30:25.235Z,99.90
2022-09-29T03:33:10.964Z,99.90
2022-09-29T03:35:56.380Z,99.90
2022-09-29T03:38:41.828Z,99.90
2022-09-29T03:41:27.357Z,99.90
2022-09-29T03:44:13.055Z,99.90
2022-09-29T03:46:58.887Z,99.90
2022-09-29T03:49:44.233Z,99.90
2022-09-29T03:52:30.007Z,99.90
2022-09-29T03:55:15.506Z,99.90
2022-09-29T03:58:01.240Z,99.90
2022-09-29T04:00:49.106Z,99.90
2022-09-29T04:03:34.876Z,99.90
2022-09-29T04:06:20.561Z,99.90
2022-09-29T04:09:06.347Z,99.90
2022-09-29T04:11:51.594Z,99.90
2022-09-29T04:14:37.024Z,99.90
2022-09-29T04:17:22.498Z,99.90
2022-09-29T04:20:08.386Z,99.90
2022-09-29T04:22:54.251Z,99.90
2022-09-29T04:25:39.978Z,99.90
2022-09-29T04:28:25.942Z,99.90
2022-09-29T04:31:12.172Z,99.90
2022-09-29T04:33:57.609Z,99.90
2022-09-29T04:36:43.058Z,99.90
2022-09-29T04:39:28.658Z,99.90
2022-09-29T04:42:14.397Z,99.90
2022-09-29T04:45:00.168Z,99.90
2022-09-29T04:47:46.196Z,99.90
2022-09-29T04:50:44.679Z,99.90
2022-09-29T04:53:31.678Z,99.90
2022-09-29T04:56:17.416Z,99.90
2022-09-29T04:59:02.977Z,99.90
2022-09-29T05:01:49.539Z,99.90
2022-09-29T05:04:34.892Z,99.90
2022-09-29T05:07:20.448Z,99.90
2022-09-29T05:10:07.213Z,99.90
2022-09-29T05:12:52.977Z,99.90
2022-09-29T05:15:38.378Z,99.90
2022-09-29T05:18:25.054Z,99.90
2022-09-29T05:21:27.116Z,99.90
2022-09-29T05:24:13.613Z,99.90
2022-09-29T05:26:59.325Z,99.90
2022-09-29T05:29:44.846Z,99.90
2022-09-29T05:32:30.724Z,99.90
2022-09-29T05:35:16.614Z,99.90
2022-09-29T05:38:02.465Z,99.90
2022-09-29T05:40:48.646Z,99.90
2022-09-29T05:43:34.479Z,99.90
2022-09-29T05:46:21.160Z,99.90
2022-09-29T05:49:06.609Z,99.90
2022-09-29T05:51:52.118Z,99.90
2022-09-29T05:54:37.885Z,99.90
2022-09-29T05:57:23.405Z,99.90
2022-09-29T06:00:09.377Z,99.90
2022-09-29T06:03:01.620Z,99.90
2022-09-29T06:05:47.376Z,99.90
2022-09-29T06:08:32.807Z,99.90
2022-09-29T06:11:21.634Z,99.90
2022-09-29T06:14:07.223Z,99.90
2022-09-29T06:16:52.736Z,99.90
2022-09-29T06:19:40.709Z,99.90
2022-09-29T06:22:29.798Z,99.90
2022-09-29T06:25:15.575Z,99.90
2022-09-29T06:28:01.313Z,99.90
2022-09-29T06:30:47.139Z,99.90
2022-09-29T06:33:34.249Z,99.90
2022-09-29T06:36:53.826Z,99.90
2022-09-29T06:39:39.661Z,99.90
2022-09-29T06:42:25.373Z,99.90
2022-09-29T06:45:11.379Z,99.90
2022-09-29T06:48:00.624Z,99.90
2022-09-29T06:50:46.705Z,99.90
2022-09-29T06:53:38.059Z,99.90
2022-09-29T06:56:24.276Z,99.90
2022-09-29T06:59:09.996Z,99.90
2022-09-29T07:01:55.534Z,99.90
2022-09-29T07:04:41.089Z,99.90
2022-09-29T07:07:26.793Z,99.90
2022-09-29T07:10:12.625Z,99.90
2022-09-29T07:12:58.206Z,99.90
2022-09-29T07:15:43.541Z,99.90
2022-09-29T07:18:29.218Z,99.90
2022-09-29T07:21:17.828Z,99.90
2022-09-29T07:24:04.321Z,99.90
2022-09-29T07:26:50.961Z,99.90
2022-09-29T07:29:36.901Z,99.90
2022-09-29T07:32:27.682Z,99.90
2022-09-29T07:35:13.336Z,99.90
2022-09-29T07:37:59.095Z,99.90
2022-09-29T07:40:45.045Z,99.90
2022-09-29T07:43:31.447Z,99.90
2022-09-29T07:46:17.236Z,99.90
2022-09-29T07:49:02.826Z,99.90
2022-09-29T07:51:48.724Z,99.90
2022-09-29T07:54:34.849Z,99.90
2022-09-29T07:57:20.396Z,99.90
2022-09-29T08:00:06.355Z,99.90
2022-09-29T08:03:15.267Z,99.90
2022-09-29T08:06:00.794Z,99.90
2022-09-29T08:08:58.839Z,99.90
2022-09-29T08:11:48.888Z,99.90
2022-09-29T08:14:41.968Z,99.90
2022-09-29T08:17:29.577Z,99.90
2022-09-29T08:20:15.420Z,99.90
2022-09-29T08:23:00.973Z,99.90
2022-09-29T08:25:55.625Z,99.90
2022-09-29T08:28:45.932Z,99.90
2022-09-29T08:31:31.913Z,99.90
2022-09-29T08:34:17.651Z,99.90
2022-09-29T08:37:03.504Z,99.90
2022-09-29T08:39:49.071Z,99.90
2022-09-29T08:42:48.844Z,99.90
2022-09-29T08:45:56.658Z,99.90
2022-09-29T08:48:56.330Z,99.90
2022-09-29T08:51:53.349Z,99.90
2022-09-29T08:54:47.514Z,99.90
2022-09-29T08:57:36.808Z,99.90
2022-09-29T09:00:38.920Z,99.90
2022-09-29T09:03:39.776Z,99.90
2022-09-29T09:06:43.616Z,99.90
2022-09-29T09:09:50.870Z,99.90
2022-09-29T09:13:12.517Z,99.90
2022-09-29T09:16:26.479Z,99.90
2022-09-29T09:19:27.006Z,99.90
2022-09-29T09:22:23.149Z,99.90
2022-09-29T09:25:27.110Z,99.90
2022-09-29T09:28:17.740Z,99.90
2022-09-29T09:31:26.724Z,99.90
2022-09-29T09:34:46.733Z,99.90
2022-09-29T09:37:40.988Z,99.90
2022-09-29T09:40:44.991Z,99.90
2022-09-29T09:43:47.186Z,99.90
2022-09-29T09:46:40.199Z,99.90
2022-09-29T09:49:37.499Z,99.90
2022-09-29T09:52:31.357Z,99.90
2022-09-29T09:55:24.831Z,99.90
2022-09-29T09:58:33.708Z,99.90
2022-09-29T10:01:27.270Z,99.90
2022-09-29T10:04:16.199Z,99.90
2022-09-29T10:07:01.776Z,99.90
2022-09-29T10:09:49.087Z,99.90
2022-09-29T10:12:34.504Z,99.90
2022-09-29T10:15:28.213Z,99.90
2022-09-29T10:18:23.531Z,99.90
2022-09-29T10:21:29.674Z,99.90
2022-09-29T10:24:22.924Z,99.90
2022-09-29T10:27:08.397Z,99.90
2022-09-29T10:29:55.122Z,99.90
2022-09-29T10:32:44.000Z,99.90
2022-09-29T10:35:29.870Z,99.90
2022-09-29T10:38:24.089Z,99.90
2022-09-29T10:41:10.104Z,99.90
2022-09-29T10:43:56.309Z,99.90
2022-09-29T10:46:54.313Z,99.90
2022-09-29T10:49:40.283Z,99.90
2022-09-29T10:52:28.973Z,99.90
2022-09-29T10:55:20.643Z,99.90
2022-09-29T10:58:44.636Z,99.90
2022-09-29T11:01:35.640Z,99.90
2022-09-29T11:04:32.985Z,99.90
2022-09-29T11:07:19.132Z,99.90
2022-09-29T11:10:05.465Z,99.90
2022-09-29T11:12:51.518Z,99.90
2022-09-29T11:15:41.771Z,99.90
2022-09-29T11:18:36.490Z,99.90
2022-09-29T11:21:22.334Z,99.90
2022-09-29T11:24:43.373Z,99.90
2022-09-29T11:27:51.789Z,99.90
2022-09-29T11:31:09.682Z,99.90
2022-09-29T11:34:11.961Z,99.90
2022-09-29T11:37:07.234Z,99.90
2022-09-29T11:40:12.145Z,99.90
2022-09-29T11:43:30.964Z,99.90
2022-09-29T11:46:38.485Z,99.90
2022-09-29T11:50:02.322Z,99.90
2022-09-29T11:52:58.359Z,99.60
2022-09-29T11:56:02.789Z,99.30
2022-09-29T11:59:13.856Z,99.20
2022-09-29T12:02:08.877Z,98.90
2022-09-29T12:05:24.549Z,98.60
2022-09-29T12:08:16.073Z,98.30
2022-09-29T12:11:51.034Z,98.20
2022-09-29T12:15:19.161Z,97.90
2022-09-29T12:18:14.140Z,97.80
2022-09-29T12:21:01.720Z,97.50
2022-09-29T12:23:48.771Z,97.30
2022-09-29T12:26:35.484Z,97.10
2022-09-29T12:30:06.020Z,96.80
2022-09-29T12:33:06.946Z,95.80
2022-09-29T12:36:30.023Z,95.30
2022-09-29T12:39:33.252Z,95.60
2022-09-29T12:42:21.934Z,95.30
2022-09-29T12:45:20.518Z,95.20
2022-09-29T12:48:43.325Z,94.60
2022-09-29T12:51:46.398Z,93.90
2022-09-29T12:54:53.749Z,93.90
2022-09-29T12:57:43.516Z,93.90
2022-09-29T13:00:33.984Z,94.40
2022-09-29T13:03:35.342Z,95.10
2022-09-29T13:06:48.503Z,95.60
2022-09-29T13:10:07.001Z,95.70
2022-09-29T13:13:05.076Z,96.10
2022-09-29T13:16:05.138Z,96.30
2022-09-29T13:19:52.600Z,96.60
2022-09-29T13:22:58.753Z,96.90
2022-09-29T13:26:22.074Z,97.00
2022-09-29T13:29:18.021Z,97.20
2022-09-29T13:32:04.159Z,97.70
2022-09-29T13:34:57.413Z,97.50
2022-09-29T13:37:48.553Z,97.00
2022-09-29T13:40:34.735Z,96.80
2022-09-29T13:43:53.177Z,96.60
2022-09-29T13:46:40.594Z,96.20
2022-09-29T13:49:29.278Z,95.80
2022-09-29T13:52:18.436Z,95.50
2022-09-29T13:55:46.258Z,95.10
2022-09-29T13:58:54.154Z,94.40
2022-09-29T14:01:40.502Z,94.30
2022-09-29T14:04:51.711Z,94.10
2022-09-29T14:07:49.574Z,93.70
2022-09-29T14:10:36.782Z,93.30
2022-09-29T14:13:31.590Z,93.40
2022-09-29T14:16:17.079Z,93.00
2022-09-29T14:19:24.598Z,92.80
2022-09-29T14:22:38.826Z,92.40
2022-09-29T14:25:41.010Z,92.50
2022-09-29T14:28:37.812Z,92.30
2022-09-29T14:31:26.042Z,91.50
2022-09-29T14:34:16.561Z,91.60
2022-09-29T14:37:03.923Z,91.20
2022-09-29T14:40:09.966Z,91.00
2022-09-29T14:43:25.296Z,90.90
2022-09-29T14:46:55.638Z,90.80
2022-09-29T14:50:15.322Z,90.70
2022-09-29T14:53:35.907Z,90.60
2022-09-29T14:56:31.165Z,90.80
2022-09-29T14:59:58.832Z,90.90
2022-09-29T15:03:00.340Z,90.90
2022-09-29T15:06:09.970Z,91.20
2022-09-29T15:09:15.862Z,90.80
2022-09-29T15:12:04.908Z,90.80
2022-09-29T15:14:50.505Z,90.60
2022-09-29T15:17:53.368Z,90.80
2022-09-29T15:21:14.964Z,90.70
2022-09-29T15:24:14.989Z,90.90
2022-09-29T15:27:04.222Z,90.70
2022-09-29T15:29:53.998Z,90.80
2022-09-29T15:32:39.838Z,90.50
2022-09-29T15:35:26.065Z,90.60
2022-09-29T15:38:17.602Z,90.50
2022-09-29T15:41:14.708Z,90.40
2022-09-29T15:44:18.182Z,90.90
2022-09-29T15:47:04.460Z,91.50
2022-09-29T15:49:52.812Z,91.80
2022-09-29T15:52:38.947Z,91.80
2022-09-29T15:55:25.647Z,92.20
2022-09-29T15:58:27.103Z,92.30
2022-09-29T16:01:19.436Z,92.60
2022-09-29T16:04:04.997Z,92.90
2022-09-29T16:06:52.042Z,93.10
2022-09-29T16:09:37.983Z,93.30
2022-09-29T16:12:25.363Z,93.40
2022-09-29T16:15:21.564Z,93.40
2022-09-29T16:18:13.370Z,93.70
2022-09-29T16:21:05.814Z,93.90
2022-09-29T16:24:11.137Z,94.10
2022-09-29T16:26:58.553Z,94.20
2022-09-29T16:29:44.600Z,94.30
2022-09-29T16:32:33.542Z,94.40
2022-09-29T16:35:48.894Z,94.60
2022-09-29T16:38:36.201Z,94.70
2022-09-29T16:41:47.583Z,94.90
2022-09-29T16:44:42.379Z,95.00
2022-09-29T16:47:32.956Z,95.10
2022-09-29T16:50:20.045Z,95.30
2022-09-29T16:53:05.587Z,95.40
2022-09-29T16:56:20.213Z,95.50
2022-09-29T16:59:16.305Z,95.60
2022-09-29T17:05:07.926Z,95.90
2022-09-29T17:08:14.760Z,95.90
2022-09-29T17:11:00.635Z,95.90
2022-09-29T17:13:46.249Z,96.30
2022-09-29T17:16:32.997Z,96.60
2022-09-29T17:19:18.947Z,96.60
2022-09-29T17:22:32.077Z,96.60
2022-09-29T17:25:17.696Z,96.70
2022-09-29T17:28:12.502Z,96.70
2022-09-29T17:30:58.047Z,96.90
2022-09-29T17:33:43.720Z,97.00
2022-09-29T17:36:29.103Z,96.90
2022-09-29T17:39:16.313Z,97.20
2022-09-29T17:42:01.904Z,97.60
2022-09-29T17:44:48.168Z,97.60
2022-09-29T17:47:36.900Z,97.70
2022-09-29T17:50:32.719Z,98.00
2022-09-29T17:53:19.156Z,98.30
2022-09-29T17:56:05.494Z,98.70
2022-09-29T17:58:50.992Z,98.90
2022-09-29T18:01:37.395Z,99.10
2022-09-29T18:04:25.240Z,99.30
2022-09-29T18:07:12.402Z,99.20
2022-09-29T18:09:58.692Z,99.70
2022-09-29T18:12:44.165Z,99.80
2022-09-29T18:15:30.240Z,99.90
2022-09-29T18:18:18.790Z,99.90
2022-09-29T18:21:06.128Z,99.90
2022-09-29T18:23:51.654Z,99.90
2022-09-29T18:26:37.103Z,99.90
2022-09-29T18:29:22.601Z,99.90
2022-09-29T18:32:14.212Z,99.90
2022-09-29T18:35:00.212Z,99.90
2022-09-29T18:37:46.344Z,99.90
2022-09-29T18:40:32.126Z,99.90
2022-09-29T18:43:17.683Z,99.90
2022-09-29T18:46:03.639Z,99.90
2022-09-29T18:48:49.283Z,99.90
2022-09-29T18:51:34.813Z,99.90
2022-09-29T18:54:20.370Z,99.90
2022-09-29T18:57:07.209Z,99.90
2022-09-29T18:59:52.612Z,99.90
2022-09-29T19:02:38.291Z,99.90
2022-09-29T19:05:29.038Z,99.90
2022-09-29T19:08:16.188Z,99.90
2022-09-29T19:11:02.837Z,99.90
2022-09-29T19:13:51.703Z,99.90
2022-09-29T19:16:37.563Z,99.90
2022-09-29T19:19:25.629Z,99.90
2022-09-29T19:22:12.790Z,99.90
2022-09-29T19:24:58.686Z,99.90
2022-09-29T19:27:45.214Z,99.90
2022-09-29T19:30:33.964Z,99.90
2022-09-29T19:33:22.087Z,99.90
2022-09-29T19:36:10.373Z,99.90
2022-09-29T19:38:56.341Z,99.90
2022-09-29T19:41:42.269Z,99.90
2022-09-29T19:44:28.479Z,99.90
2022-09-29T19:47:14.113Z,99.90
2022-09-29T19:50:18.196Z,99.90
2022-09-29T19:53:03.845Z,99.90
2022-09-29T19:55:49.477Z,99.90
2022-09-29T19:58:38.568Z,99.90
2022-09-29T20:01:24.342Z,99.90
2022-09-29T20:04:11.667Z,99.90
2022-09-29T20:06:57.964Z,99.90
2022-09-29T20:09:43.742Z,99.90
2022-09-29T20:12:29.540Z,99.90
2022-09-29T20:15:15.425Z,99.90
2022-09-29T20:18:01.110Z,99.90
2022-09-29T20:20:51.558Z,99.40
2022-09-29T20:23:40.386Z,98.80
2022-09-29T20:26:26.161Z,98.60
2022-09-29T20:29:18.782Z,99.00
2022-09-29T20:32:05.672Z,99.70
2022-09-29T20:34:51.129Z,99.90
2022-09-29T20:37:36.927Z,99.90
2022-09-29T20:40:22.593Z,99.90
2022-09-29T20:43:10.761Z,99.90
2022-09-29T20:46:04.901Z,99.90
2022-09-29T20:48:55.544Z,99.90
2022-09-29T20:51:40.812Z,99.90
2022-09-29T20:54:26.353Z,99.90
2022-09-29T20:57:12.096Z,99.90
2022-09-29T20:59:57.864Z,99.90
2022-09-29T21:02:43.321Z,99.90
2022-09-29T21:05:28.946Z,99.90
2022-09-29T21:08:14.451Z,99.90
2022-09-29T21:11:01.725Z,99.90
2022-09-29T21:13:51.702Z,99.90
2022-09-29T21:16:42.212Z,99.90
2022-09-29T21:19:28.267Z,99.90
2022-09-29T21:22:14.048Z,99.90
2022-09-29T21:24:59.751Z,99.90
2022-09-29T21:27:45.168Z,99.90
2022-09-29T21:30:31.040Z,99.90
2022-09-29T21:33:16.922Z,99.90
2022-09-29T21:36:05.078Z,99.90
2022-09-29T21:38:51.640Z,99.90
2022-09-29T21:41:41.881Z,99.90
2022-09-29T21:44:27.788Z,99.90
2022-09-29T21:47:13.616Z,99.90
2022-09-29T21:49:59.428Z,99.90
2022-09-29T21:52:45.011Z,99.90
2022-09-29T21:55:30.844Z,99.90
2022-09-29T21:58:16.555Z,99.90
2022-09-29T22:01:02.235Z,99.90
2022-09-29T22:03:49.183Z,99.90
2022-09-29T22:06:36.569Z,99.90
2022-09-29T22:09:22.897Z,99.90
2022-09-29T22:12:08.309Z,99.90
2022-09-29T22:14:53.737Z,99.90
2022-09-29T22:17:39.233Z,99.90
2022-09-29T22:20:24.738Z,99.90
2022-09-29T22:23:10.155Z,99.90
2022-09-29T22:25:56.649Z,99.90
2022-09-29T22:28:46.423Z,99.90
2022-09-29T22:31:33.602Z,99.90
2022-09-29T22:34:19.603Z,99.90
2022-09-29T22:37:05.371Z,99.90
2022-09-29T22:39:50.841Z,99.90
2022-09-29T22:42:37.278Z,99.90
2022-09-29T22:45:22.740Z,99.90
2022-09-29T22:48:09.067Z,99.90
2022-09-29T22:50:55.072Z,99.90
2022-09-29T22:53:41.589Z,99.90
2022-09-29T22:56:30.131Z,99.90
2022-09-29T22:59:16.084Z,99.90
2022-09-29T23:02:01.919Z,99.90
2022-09-29T23:04:48.358Z,99.90
2022-09-29T23:07:34.821Z,99.90
2022-09-29T23:10:20.552Z,99.90
2022-09-29T23:13:06.223Z,99.90
2022-09-29T23:15:52.347Z,99.90
2022-09-29T23:18:43.504Z,99.90
2022-09-29T23:21:29.140Z,99.90
2022-09-29T23:24:14.975Z,99.90
2022-09-29T23:27:00.568Z,99.90
2022-09-29T23:29:47.062Z,99.90
2022-09-29T23:32:32.803Z,99.90
2022-09-29T23:35:18.532Z,99.90
2022-09-29T23:38:22.769Z,99.90
2022-09-29T23:41:08.384Z,99.90
2022-09-29T23:43:58.203Z,99.90
2022-09-29T23:46:44.461Z,99.90
2022-09-29T23:49:30.047Z,99.90
2022-09-29T23:52:15.470Z,99.90
2022-09-29T23:55:01.070Z,99.90
2022-09-29T23:57:46.821Z,99.90
